createdAt,value
2018-04-22T00:01:22.160Z,95415.12
2018-04-22T00:03:48.168Z,95416.84
2018-04-22T00:06:14.187Z,95415.47
2018-04-22T00:08:40.188Z,95408.42
2018-04-22T00:11:06.206Z,95410.38
2018-04-22T00:13:32.238Z,95404.45
2018-04-22T00:15:58.238Z,95404.45
2018-04-22T00:18:24.274Z,95400.33
2018-04-22T00:20:50.299Z,95402.11
2018-04-22T00:23:16.346Z,95400.52
2018-04-22T00:25:42.313Z,95396.14
2018-04-22T00:28:08.361Z,95395.17
2018-04-22T00:30:34.375Z,95397.11
2018-04-22T00:33:00.405Z,95397.52
2018-04-22T00:35:26.390Z,95402.25
2018-04-22T00:37:52.400Z,95405.37
2018-04-22T00:40:18.414Z,95417.20
2018-04-22T00:42:44.428Z,95412.45
2018-04-22T00:45:10.433Z,95414.23
2018-04-22T00:47:36.472Z,95418.36
2018-04-22T00:50:02.454Z,95425.66
2018-04-22T00:52:28.470Z,95420.87
2018-04-22T00:54:54.503Z,95418.31
2018-04-22T00:57:20.545Z,95416.74
2018-04-22T00:59:46.549Z,95411.83
2018-04-22T01:02:12.558Z,95408.67
2018-04-22T01:04:38.617Z,95414.96
2018-04-22T01:07:04.619Z,95419.09
2018-04-22T01:09:30.628Z,95421.06
2018-04-22T01:11:56.647Z,95429.73
2018-04-22T01:14:22.657Z,95426.33
2018-04-22T01:16:48.664Z,95423.98
2018-04-22T01:19:14.721Z,95418.88
2018-04-22T01:21:40.726Z,95417.09
2018-04-22T01:24:06.943Z,95412.00
2018-04-22T01:26:32.955Z,95410.97
2018-04-22T01:28:58.990Z,95411.19
2018-04-22T01:31:24.961Z,95411.38
2018-04-22T01:33:51.006Z,95412.34
2018-04-22T01:36:16.992Z,95410.78
2018-04-22T01:38:43.008Z,95410.41
2018-04-22T01:41:09.032Z,95405.87
2018-04-22T01:43:35.053Z,95399.39
2018-04-22T01:46:01.058Z,95394.20
2018-04-22T01:48:27.080Z,95398.02
2018-04-22T01:50:53.101Z,95395.42
2018-04-22T01:53:19.152Z,95397.36
2018-04-22T01:55:45.168Z,95393.23
2018-04-22T01:58:11.166Z,95391.08
2018-04-22T02:00:37.180Z,95392.83
2018-04-22T02:03:03.203Z,95392.05
2018-04-22T02:05:29.216Z,95385.95
2018-04-22T02:07:55.219Z,95385.16
2018-04-22T02:10:21.225Z,95377.31
2018-04-22T02:12:47.240Z,95379.66
2018-04-22T02:15:13.245Z,95382.98
2018-04-22T02:17:39.251Z,95377.26
2018-04-22T02:20:05.253Z,95377.88
2018-04-22T02:22:31.283Z,95375.69
2018-04-22T02:24:57.324Z,95382.57
2018-04-22T02:27:23.311Z,95381.20
2018-04-22T02:29:49.334Z,95386.70
2018-04-22T02:32:15.344Z,95383.14
2018-04-22T02:34:41.362Z,95376.86
2018-04-22T02:37:07.365Z,95371.75
2018-04-22T02:39:33.380Z,95371.34
2018-04-22T02:41:59.429Z,95377.83
2018-04-22T02:44:25.396Z,95376.20
2018-04-22T02:46:51.461Z,95376.66
2018-04-22T02:49:17.507Z,95371.34
2018-04-22T02:51:43.491Z,95372.88
2018-04-22T02:54:09.501Z,95374.45
2018-04-22T02:56:35.510Z,95376.61
2018-04-22T02:59:01.541Z,95366.97
2018-04-22T03:01:27.518Z,95368.30
2018-04-22T03:03:53.563Z,95356.16
2018-04-22T03:06:19.566Z,95355.18
2018-04-22T03:08:45.571Z,95359.31
2018-04-22T03:11:11.626Z,95362.44
2018-04-22T03:13:37.625Z,95361.41
2018-04-22T03:16:03.636Z,95359.06
2018-04-22T03:18:29.650Z,95360.44
2018-04-22T03:20:55.696Z,95366.11
2018-04-22T03:23:21.717Z,95368.30
2018-04-22T03:25:47.751Z,95374.37
2018-04-22T03:28:13.777Z,95375.99
2018-04-22T03:30:39.817Z,95378.69
2018-04-22T03:33:05.791Z,95376.55
2018-04-22T03:35:31.827Z,95374.21
2018-04-22T03:37:57.833Z,95382.58
2018-04-22T03:40:23.844Z,95395.61
2018-04-22T03:42:49.855Z,95391.48
2018-04-22T03:45:15.841Z,95396.02
2018-04-22T03:47:41.875Z,95405.25
2018-04-22T03:50:07.882Z,95406.44
2018-04-22T03:52:33.944Z,95408.98
2018-04-22T03:54:59.949Z,95414.48
2018-04-22T03:57:25.973Z,95424.69
2018-04-22T03:59:51.988Z,95423.31
2018-04-22T04:02:17.997Z,95421.93
2018-04-22T04:04:44.008Z,95422.34
2018-04-22T04:07:10.026Z,95427.44
2018-04-22T04:09:36.061Z,95420.39
2018-04-22T04:12:02.036Z,95421.72
2018-04-22T04:14:28.044Z,95423.50
2018-04-22T04:16:54.057Z,95421.31
2018-04-22T04:19:20.163Z,95419.94
2018-04-22T04:21:46.120Z,95419.94
2018-04-22T04:24:12.138Z,95423.66
2018-04-22T04:26:38.152Z,95424.28
2018-04-22T04:29:04.166Z,95415.23
2018-04-22T04:31:30.171Z,95417.59
2018-04-22T04:33:56.194Z,95413.86
2018-04-22T04:36:22.203Z,95419.37
2018-04-22T04:38:48.214Z,95421.93
2018-04-22T04:41:14.255Z,95413.86
2018-04-22T04:43:40.228Z,95412.70
2018-04-22T04:46:06.277Z,95411.73
2018-04-22T04:48:32.282Z,95410.52
2018-04-22T04:50:58.287Z,95409.14
2018-04-22T04:53:24.301Z,95406.63
2018-04-22T04:55:50.318Z,95407.19
2018-04-22T04:58:16.374Z,95407.03
2018-04-22T05:00:42.352Z,95407.41
2018-04-22T05:03:08.409Z,95405.66
2018-04-22T05:05:34.415Z,95403.68
2018-04-22T05:08:00.453Z,95398.98
2018-04-22T05:10:26.466Z,95395.27
2018-04-22T05:12:52.474Z,95385.38
2018-04-22T05:15:18.479Z,95385.79
2018-04-22T05:17:44.491Z,95391.89
2018-04-22T05:20:10.499Z,95393.27
2018-04-22T05:22:36.510Z,95388.73
2018-04-22T05:25:02.525Z,95390.32
2018-04-22T05:27:28.537Z,95393.64
2018-04-22T05:29:54.540Z,95389.52
2018-04-22T05:32:20.547Z,95390.11
2018-04-22T05:34:46.554Z,95391.89
2018-04-22T05:37:12.557Z,95389.70
2018-04-22T05:39:38.569Z,95390.52
2018-04-22T05:42:04.607Z,95389.52
2018-04-22T05:44:30.614Z,95394.64
2018-04-22T05:46:56.621Z,95400.36
2018-04-22T05:49:22.623Z,95401.12
2018-04-22T05:51:48.636Z,95399.34
2018-04-22T05:54:14.650Z,95399.75
2018-04-22T05:56:40.688Z,95393.64
2018-04-22T05:59:06.693Z,95384.81
2018-04-22T06:01:32.715Z,95389.24
2018-04-22T06:03:58.755Z,95393.99
2018-04-22T06:06:24.740Z,95390.02
2018-04-22T06:08:50.790Z,95392.16
2018-04-22T06:11:16.775Z,95387.41
2018-04-22T06:13:42.795Z,95388.78
2018-04-22T06:16:08.803Z,95386.03
2018-04-22T06:18:34.862Z,95384.81
2018-04-22T06:21:00.873Z,95387.97
2018-04-22T06:23:26.876Z,95389.59
2018-04-22T06:25:52.925Z,95387.63
2018-04-22T06:28:18.988Z,95390.22
2018-04-22T06:30:44.968Z,95379.01
2018-04-22T06:33:11.010Z,95380.63
2018-04-22T06:35:37.016Z,95376.09
2018-04-22T06:38:03.039Z,95375.48
2018-04-22T06:40:29.049Z,95372.48
2018-04-22T06:42:55.146Z,95375.23
2018-04-22T06:45:21.164Z,95367.16
2018-04-22T06:47:47.251Z,95364.81
2018-04-22T06:50:13.263Z,95364.01
2018-04-22T06:52:39.320Z,95365.95
2018-04-22T06:55:05.396Z,95369.27
2018-04-22T06:57:31.411Z,95368.95
2018-04-22T06:59:57.457Z,95358.50
2018-04-22T07:02:23.444Z,95365.03
2018-04-22T07:04:49.445Z,95360.91
2018-04-22T07:07:15.463Z,95354.02
2018-04-22T07:09:41.537Z,95355.80
2018-04-22T07:12:07.567Z,95356.37
2018-04-22T07:14:33.650Z,95360.14
2018-04-22T07:16:59.686Z,95354.88
2018-04-22T07:19:25.708Z,95355.50
2018-04-22T07:21:51.715Z,95356.25
2018-04-22T07:24:17.879Z,95351.72
2018-04-22T07:26:43.917Z,95356.82
2018-04-22T07:29:09.937Z,95350.56
2018-04-22T07:31:36.059Z,95352.17
2018-04-22T07:34:02.064Z,95354.17
2018-04-22T07:36:28.072Z,95354.17
2018-04-22T07:38:54.077Z,95352.63
2018-04-22T07:41:20.128Z,95351.52
2018-04-22T07:43:46.144Z,95357.29
2018-04-22T07:46:12.153Z,95355.70
2018-04-22T07:48:38.168Z,95353.35
2018-04-22T07:51:04.182Z,95351.16
2018-04-22T07:53:30.291Z,95352.33
2018-04-22T07:55:56.247Z,95351.57
2018-04-22T07:58:22.251Z,95352.95
2018-04-22T08:00:48.292Z,95347.39
2018-04-22T08:03:14.293Z,95349.17
2018-04-22T08:05:40.339Z,95351.87
2018-04-22T08:08:06.370Z,95351.87
2018-04-22T08:10:32.414Z,95349.52
2018-04-22T08:12:58.752Z,95346.37
2018-04-22T08:15:24.775Z,95346.98
2018-04-22T08:17:50.806Z,95346.02
2018-04-22T08:20:16.822Z,95340.09
2018-04-22T08:22:42.831Z,95338.97
2018-04-22T08:25:08.841Z,95341.77
2018-04-22T08:27:34.856Z,95335.86
2018-04-22T08:30:00.870Z,95338.66
2018-04-22T08:32:26.905Z,95334.53
2018-04-22T08:34:52.869Z,95336.27
2018-04-22T08:37:18.885Z,95334.03
2018-04-22T08:39:44.894Z,95337.14
2018-04-22T08:42:10.947Z,95335.35
2018-04-22T08:44:36.962Z,95329.28
2018-04-22T08:47:02.984Z,95321.59
2018-04-22T08:49:29.009Z,95321.34
2018-04-22T08:51:55.036Z,95324.45
2018-04-22T08:54:21.061Z,95324.40
2018-04-22T08:56:47.067Z,95317.30
2018-04-22T08:59:13.101Z,95315.69
2018-04-22T09:01:39.404Z,95316.28
2018-04-22T09:04:05.380Z,95302.88
2018-04-22T09:06:31.391Z,95308.75
2018-04-22T09:08:57.434Z,95298.91
2018-04-22T09:11:23.447Z,95294.94
2018-04-22T09:13:49.458Z,95290.41
2018-04-22T09:16:15.501Z,95294.16
2018-04-22T09:18:41.479Z,95291.41
2018-04-22T09:21:07.484Z,95302.41
2018-04-22T09:23:33.490Z,95282.69
2018-04-22T09:25:59.498Z,95282.86
2018-04-22T09:28:25.551Z,95279.94
2018-04-22T09:30:51.557Z,95278.11
2018-04-22T09:33:17.568Z,95288.77
2018-04-22T09:35:43.603Z,95280.10
2018-04-22T09:38:09.640Z,95271.62
2018-04-22T09:40:35.616Z,95268.23
2018-04-22T09:43:01.659Z,95268.83
2018-04-22T09:45:27.662Z,95261.95
2018-04-22T09:47:53.664Z,95265.59
2018-04-22T09:50:19.695Z,95263.13
2018-04-22T09:52:45.708Z,95258.22
2018-04-22T09:55:11.728Z,95264.15
2018-04-22T09:57:37.739Z,95261.45
2018-04-22T10:00:03.749Z,95261.84
2018-04-22T10:02:29.751Z,95263.17
2018-04-22T10:04:55.821Z,95256.34
2018-04-22T10:07:21.796Z,95262.88
2018-04-22T10:09:47.777Z,95250.11
2018-04-22T10:12:13.821Z,95255.47
2018-04-22T10:14:39.846Z,95260.67
2018-04-22T10:17:05.849Z,95259.08
2018-04-22T10:19:31.867Z,95249.95
2018-04-22T10:21:57.886Z,95251.73
2018-04-22T10:24:23.924Z,95235.16
2018-04-22T10:26:49.896Z,95242.25
2018-04-22T10:29:15.955Z,95244.44
2018-04-22T10:31:41.956Z,95235.42
2018-04-22T10:34:07.966Z,95236.39
2018-04-22T10:36:33.980Z,95234.84
2018-04-22T10:39:00.001Z,95227.00
2018-04-22T10:41:26.038Z,95226.80
2018-04-22T10:43:52.021Z,95221.70
2018-04-22T10:46:18.034Z,95223.93
2018-04-22T10:48:44.076Z,95223.31
2018-04-22T10:51:10.135Z,95223.36
2018-04-22T10:53:36.153Z,95217.66
2018-04-22T10:56:02.179Z,95213.13
2018-04-22T10:58:28.374Z,95212.16
2018-04-22T11:00:54.484Z,95212.56
2018-04-22T11:03:20.494Z,95205.89
2018-04-22T11:05:46.521Z,95213.06
2018-04-22T11:08:12.529Z,95203.46
2018-04-22T11:10:38.553Z,95199.13
2018-04-22T11:13:04.598Z,95197.95
2018-04-22T11:15:30.578Z,95187.16
2018-04-22T11:17:56.710Z,95185.20
2018-04-22T11:20:22.795Z,95188.58
2018-04-22T11:22:48.796Z,95188.16
2018-04-22T11:25:14.843Z,95188.00
2018-04-22T11:27:40.845Z,95183.83
2018-04-22T11:30:06.855Z,95193.30
2018-04-22T11:32:32.908Z,95175.05
2018-04-22T11:34:58.953Z,95173.09
2018-04-22T11:37:24.941Z,95170.28
2018-04-22T11:39:51.698Z,95168.01
2018-04-22T11:42:17.739Z,95163.67
2018-04-22T11:44:43.786Z,95158.56
2018-04-22T11:47:09.762Z,95160.75
2018-04-22T11:49:35.776Z,95160.19
2018-04-22T11:52:01.790Z,95158.28
2018-04-22T11:54:27.794Z,95144.25
2018-04-22T11:56:53.961Z,95148.03
2018-04-22T11:59:19.974Z,95144.39
2018-04-22T12:01:45.988Z,95145.16
2018-04-22T12:04:12.023Z,95143.33
2018-04-22T12:06:38.029Z,95138.18
2018-04-22T12:09:04.199Z,95144.42
2018-04-22T12:11:30.251Z,95135.55
2018-04-22T12:13:56.370Z,95131.74
2018-04-22T12:16:22.380Z,95127.87
2018-04-22T12:18:48.397Z,95122.40
2018-04-22T12:21:14.740Z,95115.39
2018-04-22T12:23:40.757Z,95114.06
2018-04-22T12:26:06.787Z,95108.31
2018-04-22T12:28:32.822Z,95107.13
2018-04-22T12:30:58.950Z,95107.95
2018-04-22T12:33:24.962Z,95097.70
2018-04-22T12:35:50.982Z,95097.70
2018-04-22T12:38:17.031Z,95090.94
2018-04-22T12:40:43.029Z,95092.47
2018-04-22T12:43:09.048Z,95089.84
2018-04-22T12:45:35.069Z,95092.39
2018-04-22T12:48:01.106Z,95082.59
2018-04-22T12:50:27.106Z,95080.64
2018-04-22T12:52:53.121Z,95075.50
2018-04-22T12:55:19.123Z,95075.30
2018-04-22T12:57:45.127Z,95070.52
2018-04-22T13:00:11.147Z,95071.66
2018-04-22T13:02:37.186Z,95070.88
2018-04-22T13:05:03.181Z,95077.77
2018-04-22T13:07:29.183Z,95058.69
2018-04-22T13:09:55.195Z,95061.85
2018-04-22T13:12:21.205Z,95060.34
2018-04-22T13:14:47.218Z,95057.80
2018-04-22T13:17:13.226Z,95059.55
2018-04-22T13:19:39.382Z,95054.88
2018-04-22T13:22:05.323Z,95050.95
2018-04-22T13:24:31.340Z,95049.41
2018-04-22T13:26:57.629Z,95041.55
2018-04-22T13:29:23.648Z,95042.38
2018-04-22T13:31:52.754Z,95036.12
2018-04-22T13:34:18.744Z,95035.32
2018-04-22T13:36:45.728Z,95033.66
2018-04-22T13:39:11.729Z,95039.41
2018-04-22T13:41:37.742Z,95032.33
2018-04-22T13:44:03.762Z,95038.28
2018-04-22T13:46:29.803Z,95034.11
2018-04-22T13:49:05.140Z,95033.74
2018-04-22T13:51:31.168Z,95025.06
2018-04-22T13:53:58.210Z,95020.94
2018-04-22T13:56:24.242Z,95024.06
2018-04-22T13:58:50.277Z,95019.16
2018-04-22T14:01:16.478Z,95027.58
2018-04-22T14:03:42.510Z,95021.91
2018-04-22T14:06:25.209Z,95018.95
2018-04-22T14:08:51.226Z,95017.98
2018-04-22T14:11:17.241Z,95021.55
2018-04-22T14:13:43.334Z,95010.53
2018-04-22T14:16:09.373Z,95019.32
2018-04-22T14:18:35.383Z,95013.00
2018-04-22T14:21:01.393Z,95014.01
2018-04-22T14:23:27.415Z,95011.83
2018-04-22T14:25:53.431Z,95012.31
2018-04-22T14:28:19.827Z,95017.58
2018-04-22T14:30:45.871Z,95015.06
2018-04-22T14:33:11.880Z,95015.14
2018-04-22T14:35:37.885Z,95004.60
2018-04-22T14:38:03.960Z,95010.47
2018-04-22T14:40:29.927Z,95010.30
2018-04-22T14:42:55.969Z,95001.80
2018-04-22T14:45:22.076Z,95013.47
2018-04-22T14:47:48.117Z,95002.44
2018-04-22T14:50:14.098Z,95003.09
2018-04-22T14:52:40.148Z,95009.48
2018-04-22T14:55:06.126Z,95004.38
2018-04-22T14:57:32.151Z,95007.95
2018-04-22T14:59:58.153Z,95003.88
2018-04-22T15:02:24.175Z,95002.91
2018-04-22T15:04:50.224Z,95005.20
2018-04-22T15:07:16.197Z,94997.50
2018-04-22T15:09:42.216Z,94997.98
2018-04-22T15:12:08.262Z,95000.37
2018-04-22T15:14:35.359Z,95006.82
2018-04-22T15:17:02.497Z,95001.21
2018-04-22T15:19:28.600Z,94999.64
2018-04-22T15:21:54.617Z,94994.49
2018-04-22T15:24:20.633Z,94996.51
2018-04-22T15:26:46.648Z,94995.09
2018-04-22T15:29:12.684Z,94995.46
2018-04-22T15:31:38.694Z,94995.50
2018-04-22T15:34:04.728Z,94999.70
2018-04-22T15:36:30.755Z,94991.06
2018-04-22T15:38:56.768Z,94994.80
2018-04-22T15:41:22.868Z,94999.58
2018-04-22T15:43:48.833Z,94997.66
2018-04-22T15:46:14.842Z,94988.14
2018-04-22T15:48:40.855Z,94992.35
2018-04-22T15:51:06.860Z,94989.90
2018-04-22T15:53:32.907Z,94985.56
2018-04-22T15:55:58.909Z,94993.09
2018-04-22T15:58:25.232Z,94989.56
2018-04-22T16:00:51.269Z,94995.69
2018-04-22T16:03:17.276Z,94991.11
2018-04-22T16:05:43.291Z,94991.92
2018-04-22T16:08:09.293Z,94989.97
2018-04-22T16:10:35.331Z,94996.05
2018-04-22T16:13:01.306Z,94990.38
2018-04-22T16:15:27.404Z,94990.17
2018-04-22T16:17:53.445Z,94993.00
2018-04-22T16:20:19.512Z,94993.20
2018-04-22T16:22:45.525Z,95001.84
2018-04-22T16:25:11.531Z,95001.84
2018-04-22T16:27:37.545Z,94999.66
2018-04-22T16:30:03.588Z,95004.56
2018-04-22T16:32:29.593Z,95009.47
2018-04-22T16:34:55.605Z,95005.97
2018-04-22T16:37:21.609Z,95011.33
2018-04-22T16:39:47.637Z,95016.56
2018-04-22T16:42:13.642Z,95015.15
2018-04-22T16:44:39.786Z,95015.59
2018-04-22T16:47:05.840Z,95013.00
2018-04-22T16:49:31.865Z,95012.77
2018-04-22T16:51:57.877Z,95021.44
2018-04-22T16:54:23.920Z,95025.58
2018-04-22T16:56:49.932Z,95021.00
2018-04-22T16:59:15.912Z,95027.36
2018-04-22T17:01:41.930Z,95030.31
2018-04-22T17:04:07.984Z,95030.66
2018-04-22T17:06:34.012Z,95032.59
2018-04-22T17:09:00.055Z,95029.64
2018-04-22T17:11:26.055Z,95031.99
2018-04-22T17:13:52.076Z,95033.53
2018-04-22T17:16:18.105Z,95041.20
2018-04-22T17:18:44.172Z,95039.78
2018-04-22T17:21:10.247Z,95044.66
2018-04-22T17:23:36.297Z,95043.48
2018-04-22T17:26:02.307Z,95052.85
2018-04-22T17:28:28.436Z,95053.70
2018-04-22T17:30:54.476Z,95060.02
2018-04-22T17:33:20.485Z,95054.70
2018-04-22T17:35:46.493Z,95061.36
2018-04-22T17:38:12.503Z,95054.63
2018-04-22T17:40:38.569Z,95062.77
2018-04-22T17:43:04.577Z,95066.14
2018-04-22T17:45:31.786Z,95060.66
2018-04-22T17:47:56.617Z,95062.25
2018-04-22T17:50:22.637Z,95070.18
2018-04-22T17:52:48.650Z,95068.44
2018-04-22T17:55:14.694Z,95079.50
2018-04-22T17:57:40.730Z,95075.17
2018-04-22T18:00:06.793Z,95082.22
2018-04-22T18:02:32.793Z,95089.93
2018-04-22T18:04:58.803Z,95086.08
2018-04-22T18:07:24.885Z,95093.88
2018-04-22T18:09:50.875Z,95102.95
2018-04-22T18:12:16.868Z,95105.46
2018-04-22T18:14:42.882Z,95105.27
2018-04-22T18:17:08.894Z,95116.53
2018-04-22T18:19:34.909Z,95112.35
2018-04-22T18:22:00.913Z,95114.70
2018-04-22T18:24:26.924Z,95118.16
2018-04-22T18:26:52.944Z,95115.03
2018-04-22T18:29:18.947Z,95121.12
2018-04-22T18:31:44.952Z,95116.41
2018-04-22T18:34:11.025Z,95119.33
2018-04-22T18:36:37.007Z,95120.84
2018-04-22T18:39:03.019Z,95118.00
2018-04-22T18:41:29.044Z,95124.16
2018-04-22T18:43:55.098Z,95119.05
2018-04-22T18:46:21.111Z,95127.89
2018-04-22T18:48:47.149Z,95127.12
2018-04-22T18:51:13.690Z,95132.42
2018-04-22T18:53:39.709Z,95131.05
2018-04-22T18:56:05.721Z,95133.40
2018-04-22T18:58:31.749Z,95131.61
2018-04-22T19:00:57.883Z,95130.11
2018-04-22T19:03:23.899Z,95136.20
2018-04-22T19:05:49.962Z,95130.69
2018-04-22T19:08:15.968Z,95137.98
2018-04-22T19:10:41.977Z,95138.55
2018-04-22T19:13:08.092Z,95136.00
2018-04-22T19:15:34.095Z,95142.56
2018-04-22T19:18:00.134Z,95136.80
2018-04-22T19:20:26.187Z,95139.60
2018-04-22T19:22:52.242Z,95137.45
2018-04-22T19:25:18.260Z,95140.98
2018-04-22T19:27:44.276Z,95139.84
2018-04-22T19:30:10.321Z,95140.17
2018-04-22T19:32:36.328Z,95142.77
2018-04-22T19:35:02.416Z,95140.77
2018-04-22T19:37:28.429Z,95140.17
2018-04-22T19:39:54.451Z,95141.55
2018-04-22T19:42:20.461Z,95143.73
2018-04-22T19:44:46.498Z,95147.70
2018-04-22T19:47:12.491Z,95149.66
2018-04-22T19:49:38.533Z,95146.69
2018-04-22T19:52:04.513Z,95148.11
2018-04-22T19:54:30.528Z,95142.00
2018-04-22T19:56:56.578Z,95140.62
2018-04-22T19:59:22.664Z,95140.81
2018-04-22T20:01:48.696Z,95143.38
2018-04-22T20:04:14.703Z,95149.53
2018-04-22T20:06:40.721Z,95142.00
2018-04-22T20:09:06.758Z,95140.45
2018-04-22T20:11:32.734Z,95144.18
2018-04-22T20:13:58.745Z,95144.79
2018-04-22T20:16:24.747Z,95137.16
2018-04-22T20:18:50.765Z,95142.48
2018-04-22T20:21:16.773Z,95139.11
2018-04-22T20:23:42.786Z,95145.47
2018-04-22T20:26:08.786Z,95147.95
2018-04-22T20:28:34.844Z,95155.08
2018-04-22T20:31:00.860Z,95157.84
2018-04-22T20:33:26.870Z,95151.96
2018-04-22T20:35:52.888Z,95156.50
2018-04-22T20:38:18.892Z,95155.66
2018-04-22T20:40:44.915Z,95159.17
2018-04-22T20:43:10.926Z,95162.86
2018-04-22T20:45:36.939Z,95161.48
2018-04-22T20:48:02.952Z,95160.68
2018-04-22T20:50:28.973Z,95160.84
2018-04-22T20:52:54.986Z,95160.06
2018-04-22T20:55:20.998Z,95161.41
2018-04-22T20:57:47.015Z,95160.44
2018-04-22T21:00:13.034Z,95160.77
2018-04-22T21:02:39.179Z,95166.07
2018-04-22T21:05:05.216Z,95153.66
2018-04-22T21:07:31.248Z,95163.88
2018-04-22T21:09:57.257Z,95165.86
2018-04-22T21:14:58.384Z,95166.59
2018-04-22T21:17:24.401Z,95178.03
2018-04-22T21:19:50.445Z,95168.58
2018-04-22T21:22:16.497Z,95172.71
2018-04-22T21:24:42.462Z,95177.02
2018-04-22T21:27:08.474Z,95180.34
2018-04-22T21:29:34.489Z,95181.72
2018-04-22T21:32:00.497Z,95185.69
2018-04-22T21:34:26.511Z,95179.13
2018-04-22T21:36:52.524Z,95181.88
2018-04-22T21:39:18.533Z,95182.85
2018-04-22T21:41:44.542Z,95185.20
2018-04-22T21:44:10.594Z,95184.64
2018-04-22T21:46:36.604Z,95190.55
2018-04-22T21:49:02.615Z,95190.14
2018-04-22T21:51:28.639Z,95192.21
2018-04-22T21:53:54.688Z,95192.21
2018-04-22T21:56:20.700Z,95188.64
2018-04-22T21:58:46.717Z,95189.41
2018-04-22T22:01:12.763Z,95190.92
2018-04-22T22:03:38.777Z,95191.93
2018-04-22T22:06:04.809Z,95186.80
2018-04-22T22:08:30.794Z,95188.77
2018-04-22T22:10:56.793Z,95183.42
2018-04-22T22:13:22.807Z,95180.67
2018-04-22T22:15:48.870Z,95185.38
2018-04-22T22:18:14.870Z,95182.61
2018-04-22T22:20:40.925Z,95178.27
2018-04-22T22:23:06.927Z,95177.47
2018-04-22T22:25:32.936Z,95183.02
2018-04-22T22:27:58.941Z,95182.61
2018-04-22T22:30:24.956Z,95180.45
2018-04-22T22:32:50.967Z,95181.44
2018-04-22T22:35:16.975Z,95187.75
2018-04-22T22:37:42.986Z,95183.78
2018-04-22T22:40:09.025Z,95184.59
2018-04-22T22:42:35.046Z,95184.59
2018-04-22T22:45:01.048Z,95187.11
2018-04-22T22:47:27.067Z,95183.17
2018-04-22T22:49:53.084Z,95178.23
2018-04-22T22:52:19.104Z,95184.31
2018-04-22T22:54:45.108Z,95175.84
2018-04-22T22:57:11.124Z,95178.95
2018-04-22T22:59:37.147Z,95174.98
2018-04-22T23:02:03.150Z,95176.94
2018-04-22T23:04:29.192Z,95168.05
2018-04-22T23:06:55.170Z,95172.39
2018-04-22T23:09:21.176Z,95172.95
2018-04-22T23:11:47.221Z,95170.77
2018-04-22T23:14:13.236Z,95170.20
2018-04-22T23:16:39.243Z,95170.36
2018-04-22T23:19:05.259Z,95171.13
2018-04-22T23:21:31.272Z,95172.67
2018-04-22T23:23:57.286Z,95172.67
2018-04-22T23:26:23.300Z,95176.03
2018-04-22T23:28:49.311Z,95177.00
2018-04-22T23:31:15.314Z,95176.59
2018-04-22T23:33:41.325Z,95177.00
2018-04-22T23:36:07.333Z,95178.55
2018-04-22T23:38:33.405Z,95180.49
2018-04-22T23:40:59.471Z,95182.47
2018-04-22T23:43:25.483Z,95177.94
2018-04-22T23:45:54.015Z,95182.64
2018-04-22T23:48:20.018Z,95178.91
2018-04-22T23:50:46.025Z,95179.67
2018-04-22T23:53:12.040Z,95181.45
2018-04-22T23:55:38.058Z,95178.05
2018-04-22T23:58:04.073Z,95177.28
